LVITV SAZB-SADF
Flight info
| Callsign | LVITV |
|---|---|
| Flight time | N/A |
| Altitude | 13000 |
| Route | DIL DCT GBE DCT EZE |
| Aircraft | PA31/L-SDFGRY/S |
Departure
| Time | N/A |
|---|---|
| Airport | Comandante Espora Airport (SAZB) |
Arrival
| Time | 2026-04-25 21:49 |
|---|---|
| Airport | San Fernando Airport (SADF) |
| Time | Latitude | Longitude | Altitude | Speed | Heading |
|---|---|---|---|---|---|
| 2026-04-25 20:59 | -36.45363 | -58.84373 | 13598 ft | 195 kts | 11° |
| 2026-04-25 20:59 | -36.44109 | -58.83691 | 13609 ft | 195 kts | 11° |
| 2026-04-25 20:59 | -36.42854 | -58.83009 | 13621 ft | 196 kts | 11° |
| 2026-04-25 20:59 | -36.41594 | -58.82325 | 13636 ft | 195 kts | 11° |
| 2026-04-25 21:00 | -36.40340 | -58.81644 | 13652 ft | 196 kts | 11° |
| 2026-04-25 21:00 | -36.39519 | -58.81199 | 13652 ft | 196 kts | 12° |
| 2026-04-25 21:00 | -36.36497 | -58.79562 | 13364 ft | 209 kts | 13° |
| 2026-04-25 21:01 | -36.35154 | -58.78833 | 13245 ft | 212 kts | 13° |
| 2026-04-25 21:01 | -36.33782 | -58.78089 | 13133 ft | 214 kts | 13° |
| 2026-04-25 21:01 | -36.32431 | -58.77358 | 13027 ft | 215 kts | 13° |
| 2026-04-25 21:01 | -36.31061 | -58.76615 | 12923 ft | 215 kts | 13° |
| 2026-04-25 21:02 | -36.29676 | -58.75865 | 12817 ft | 215 kts | 13° |
| 2026-04-25 21:02 | -36.28296 | -58.75118 | 12713 ft | 216 kts | 13° |
| 2026-04-25 21:02 | -36.26924 | -58.74376 | 12612 ft | 216 kts | 13° |
| 2026-04-25 21:02 | -36.25540 | -58.73627 | 12512 ft | 216 kts | 13° |
| 2026-04-25 21:03 | -36.24173 | -58.72884 | 12612 ft | 206 kts | 13° |
| 2026-04-25 21:03 | -36.22889 | -58.72185 | 12804 ft | 195 kts | 12° |
| 2026-04-25 21:03 | -36.21664 | -58.71523 | 12953 ft | 188 kts | 11° |
| 2026-04-25 21:03 | -36.20465 | -58.70880 | 12947 ft | 191 kts | 11° |
| 2026-04-25 21:04 | -36.19238 | -58.70221 | 12942 ft | 193 kts | 11° |
| 2026-04-25 21:04 | -36.17987 | -58.69547 | 12942 ft | 195 kts | 12° |
| 2026-04-25 21:04 | -36.16744 | -58.68877 | 12940 ft | 196 kts | 12° |
| 2026-04-25 21:04 | -36.15482 | -58.68198 | 12939 ft | 197 kts | 12° |
| 2026-04-25 21:05 | -36.14225 | -58.67521 | 12940 ft | 198 kts | 12° |
| 2026-04-25 21:05 | -36.12956 | -58.66838 | 12942 ft | 198 kts | 12° |
| 2026-04-25 21:05 | -36.11679 | -58.66150 | 12944 ft | 199 kts | 12° |
| 2026-04-25 21:05 | -36.10417 | -58.65472 | 12943 ft | 199 kts | 12° |
| 2026-04-25 21:06 | -36.09142 | -58.64785 | 12941 ft | 200 kts | 12° |
| 2026-04-25 21:06 | -36.07863 | -58.64097 | 12939 ft | 200 kts | 12° |
| 2026-04-25 21:06 | -36.06580 | -58.63408 | 12940 ft | 200 kts | 12° |
| 2026-04-25 21:06 | -36.05725 | -58.62947 | 12939 ft | 200 kts | 12° |
| 2026-04-25 21:07 | -36.04028 | -58.62036 | 12934 ft | 200 kts | 13° |
| 2026-04-25 21:07 | -36.02746 | -58.61347 | 12929 ft | 200 kts | 13° |
| 2026-04-25 21:07 | -36.01469 | -58.60661 | 12924 ft | 200 kts | 13° |
| 2026-04-25 21:07 | -36.00193 | -58.59976 | 12923 ft | 200 kts | 13° |
| 2026-04-25 21:08 | -35.98911 | -58.59288 | 12918 ft | 200 kts | 13° |
| 2026-04-25 21:08 | -35.97638 | -58.58606 | 12914 ft | 200 kts | 13° |
| 2026-04-25 21:08 | -35.96358 | -58.57919 | 12913 ft | 200 kts | 13° |
| 2026-04-25 21:08 | -35.95074 | -58.57231 | 12919 ft | 199 kts | 13° |
| 2026-04-25 21:09 | -35.92527 | -58.55866 | 12920 ft | 199 kts | 13° |
| 2026-04-25 21:09 | -35.91269 | -58.55193 | 12922 ft | 199 kts | 13° |
| 2026-04-25 21:09 | -35.89990 | -58.54507 | 12928 ft | 198 kts | 13° |
| 2026-04-25 21:10 | -35.88726 | -58.53831 | 12933 ft | 199 kts | 12° |
| 2026-04-25 21:10 | -35.87515 | -58.53184 | 12928 ft | 199 kts | 12° |
| 2026-04-25 21:10 | -35.86247 | -58.52506 | 12921 ft | 198 kts | 13° |
| 2026-04-25 21:10 | -35.84974 | -58.51825 | 12929 ft | 198 kts | 12° |
| 2026-04-25 21:11 | -35.83698 | -58.51144 | 12931 ft | 199 kts | 12° |
| 2026-04-25 21:11 | -35.82429 | -58.50465 | 12922 ft | 199 kts | 13° |
| 2026-04-25 21:11 | -35.81152 | -58.49784 | 12924 ft | 198 kts | 13° |
| 2026-04-25 21:11 | -35.79890 | -58.49111 | 12938 ft | 199 kts | 13° |
| 2026-04-25 21:12 | -35.78622 | -58.48434 | 12938 ft | 199 kts | 13° |
| 2026-04-25 21:12 | -35.77348 | -58.47754 | 12943 ft | 200 kts | 13° |
| 2026-04-25 21:12 | -35.76066 | -58.47070 | 12933 ft | 200 kts | 13° |
| 2026-04-25 21:12 | -35.75215 | -58.46654 | 12935 ft | 196 kts | 7° |
| 2026-04-25 21:13 | -35.73502 | -58.46558 | 12950 ft | 179 kts | 340° |
| 2026-04-25 21:13 | -35.72265 | -58.46816 | 12935 ft | 181 kts | 341° |
| 2026-04-25 21:13 | -35.71019 | -58.46979 | 12933 ft | 182 kts | 345° |
| 2026-04-25 21:13 | -35.69743 | -58.47085 | 12932 ft | 183 kts | 346° |
| 2026-04-25 21:14 | -35.68473 | -58.47172 | 12930 ft | 183 kts | 346° |
| 2026-04-25 21:14 | -35.67198 | -58.47259 | 12937 ft | 183 kts | 346° |
| 2026-04-25 21:14 | -35.65914 | -58.47349 | 12936 ft | 184 kts | 346° |
| 2026-04-25 21:14 | -35.64635 | -58.47443 | 12929 ft | 184 kts | 346° |
| 2026-04-25 21:15 | -35.63361 | -58.47537 | 12929 ft | 183 kts | 346° |
| 2026-04-25 21:15 | -35.62090 | -58.47633 | 12930 ft | 183 kts | 346° |
| 2026-04-25 21:15 | -35.60799 | -58.47731 | 12929 ft | 183 kts | 346° |
| 2026-04-25 21:15 | -35.59530 | -58.47828 | 12930 ft | 183 kts | 346° |
| 2026-04-25 21:16 | -35.58253 | -58.47926 | 12934 ft | 183 kts | 346° |
| 2026-04-25 21:16 | -35.56976 | -58.48024 | 12930 ft | 183 kts | 346° |
| 2026-04-25 21:16 | -35.55700 | -58.48122 | 12933 ft | 183 kts | 346° |
| 2026-04-25 21:16 | -35.54442 | -58.48219 | 12935 ft | 183 kts | 346° |
| 2026-04-25 21:17 | -35.53149 | -58.48318 | 12931 ft | 184 kts | 346° |
| 2026-04-25 21:17 | -35.51883 | -58.48415 | 12924 ft | 183 kts | 346° |
| 2026-04-25 21:17 | -35.50606 | -58.48512 | 12927 ft | 183 kts | 346° |
| 2026-04-25 21:17 | -35.49336 | -58.48609 | 12927 ft | 183 kts | 346° |
| 2026-04-25 21:18 | -35.48061 | -58.48708 | 12932 ft | 183 kts | 346° |
| 2026-04-25 21:18 | -35.46783 | -58.48806 | 12931 ft | 184 kts | 346° |
| 2026-04-25 21:18 | -35.45504 | -58.48904 | 12932 ft | 184 kts | 346° |
| 2026-04-25 21:18 | -35.44209 | -58.49003 | 12923 ft | 184 kts | 346° |
| 2026-04-25 21:19 | -35.42924 | -58.49101 | 12926 ft | 184 kts | 346° |
| 2026-04-25 21:19 | -35.41653 | -58.49198 | 12931 ft | 184 kts | 346° |
| 2026-04-25 21:19 | -35.40367 | -58.49295 | 12931 ft | 184 kts | 346° |
| 2026-04-25 21:19 | -35.39101 | -58.49392 | 12928 ft | 183 kts | 346° |
| 2026-04-25 21:20 | -35.37809 | -58.49490 | 12934 ft | 183 kts | 346° |
| 2026-04-25 21:20 | -35.36959 | -58.49555 | 12937 ft | 183 kts | 346° |
| 2026-04-25 21:20 | -35.35258 | -58.49685 | 12936 ft | 183 kts | 346° |
| 2026-04-25 21:20 | -35.33994 | -58.49781 | 12937 ft | 183 kts | 346° |
| 2026-04-25 21:21 | -35.32721 | -58.49879 | 12933 ft | 183 kts | 346° |
| 2026-04-25 21:21 | -35.31430 | -58.49980 | 12937 ft | 183 kts | 345° |
| 2026-04-25 21:21 | -35.30242 | -58.50357 | 12942 ft | 176 kts | 332° |
| 2026-04-25 21:21 | -35.29072 | -58.50836 | 12938 ft | 177 kts | 332° |
| 2026-04-25 21:22 | -35.27901 | -58.51310 | 12935 ft | 177 kts | 332° |
| 2026-04-25 21:22 | -35.26728 | -58.51780 | 12930 ft | 178 kts | 332° |
| 2026-04-25 21:22 | -35.25544 | -58.52250 | 12921 ft | 177 kts | 333° |
| 2026-04-25 21:22 | -35.24367 | -58.52716 | 12922 ft | 177 kts | 333° |
| 2026-04-25 21:23 | -35.23193 | -58.53178 | 12921 ft | 177 kts | 333° |
| 2026-04-25 21:23 | -35.22030 | -58.53636 | 12918 ft | 177 kts | 333° |
| 2026-04-25 21:23 | -35.20858 | -58.54096 | 12918 ft | 177 kts | 333° |
| 2026-04-25 21:23 | -35.19678 | -58.54558 | 12914 ft | 177 kts | 333° |
| 2026-04-25 21:24 | -35.18508 | -58.55016 | 12915 ft | 176 kts | 333° |
| 2026-04-25 21:24 | -35.17331 | -58.55476 | 12915 ft | 176 kts | 333° |
| 2026-04-25 21:24 | -35.16170 | -58.55930 | 12917 ft | 176 kts | 333° |
| 2026-04-25 21:24 | -35.14998 | -58.56388 | 12920 ft | 176 kts | 333° |
| 2026-04-25 21:25 | -35.13829 | -58.56844 | 12927 ft | 177 kts | 333° |
| 2026-04-25 21:25 | -35.12648 | -58.57305 | 12920 ft | 177 kts | 333° |
| 2026-04-25 21:25 | -35.11476 | -58.57762 | 12915 ft | 177 kts | 333° |
| 2026-04-25 21:25 | -35.10294 | -58.58223 | 12847 ft | 181 kts | 333° |
| 2026-04-25 21:26 | -35.09065 | -58.58702 | 12723 ft | 186 kts | 334° |
| 2026-04-25 21:26 | -35.07834 | -58.59182 | 12625 ft | 188 kts | 334° |
| 2026-04-25 21:26 | -35.06566 | -58.59676 | 12485 ft | 191 kts | 334° |
| 2026-04-25 21:26 | -35.05292 | -58.60171 | 12360 ft | 193 kts | 334° |
| 2026-04-25 21:27 | -35.04010 | -58.60670 | 12239 ft | 195 kts | 334° |
| 2026-04-25 21:27 | -35.02704 | -58.61178 | 12098 ft | 195 kts | 334° |
| 2026-04-25 21:27 | -35.01397 | -58.61686 | 11963 ft | 196 kts | 334° |
| 2026-04-25 21:27 | -35.00093 | -58.62193 | 11824 ft | 196 kts | 334° |
| 2026-04-25 21:28 | -34.98796 | -58.62696 | 11726 ft | 196 kts | 334° |
| 2026-04-25 21:28 | -34.97494 | -58.63203 | 11609 ft | 197 kts | 334° |
| 2026-04-25 21:28 | -34.96187 | -58.63706 | 11480 ft | 197 kts | 335° |
| 2026-04-25 21:28 | -34.94863 | -58.64207 | 11368 ft | 197 kts | 335° |
| 2026-04-25 21:29 | -34.93557 | -58.64709 | 11257 ft | 197 kts | 335° |
| 2026-04-25 21:29 | -34.92250 | -58.65212 | 11144 ft | 197 kts | 335° |
| 2026-04-25 21:29 | -34.90938 | -58.65719 | 11031 ft | 197 kts | 335° |
| 2026-04-25 21:29 | -34.89628 | -58.66225 | 10919 ft | 197 kts | 335° |
| 2026-04-25 21:30 | -34.88306 | -58.66736 | 10809 ft | 197 kts | 335° |
| 2026-04-25 21:30 | -34.86998 | -58.67243 | 10669 ft | 198 kts | 335° |
| 2026-04-25 21:30 | -34.85672 | -58.67756 | 10520 ft | 200 kts | 335° |
| 2026-04-25 21:30 | -34.84788 | -58.68098 | 10422 ft | 200 kts | 335° |
| 2026-04-25 21:31 | -34.83015 | -58.68785 | 10228 ft | 201 kts | 335° |
| 2026-04-25 21:31 | -34.81665 | -58.69307 | 10079 ft | 202 kts | 336° |
| 2026-04-25 21:31 | -34.80336 | -58.69821 | 9934 ft | 202 kts | 336° |
| 2026-04-25 21:31 | -34.78984 | -58.70344 | 9792 ft | 202 kts | 336° |
| 2026-04-25 21:32 | -34.77643 | -58.70862 | 9651 ft | 202 kts | 336° |
| 2026-04-25 21:32 | -34.76305 | -58.71379 | 9509 ft | 203 kts | 336° |
| 2026-04-25 21:32 | -34.74956 | -58.71900 | 9369 ft | 203 kts | 336° |
| 2026-04-25 21:32 | -34.73604 | -58.72422 | 9228 ft | 203 kts | 336° |
| 2026-04-25 21:33 | -34.72258 | -58.72941 | 9090 ft | 203 kts | 336° |
| 2026-04-25 21:33 | -34.70906 | -58.73463 | 8952 ft | 203 kts | 336° |
| 2026-04-25 21:33 | -34.69561 | -58.73982 | 8817 ft | 202 kts | 337° |
| 2026-04-25 21:33 | -34.68213 | -58.74501 | 8678 ft | 202 kts | 337° |
| 2026-04-25 21:34 | -34.66812 | -58.74777 | 8524 ft | 207 kts | 350° |
| 2026-04-25 21:34 | -34.65374 | -58.74887 | 8384 ft | 207 kts | 352° |
| 2026-04-25 21:34 | -34.63920 | -58.74958 | 8246 ft | 207 kts | 353° |
| 2026-04-25 21:34 | -34.62476 | -58.75019 | 8111 ft | 207 kts | 353° |
| 2026-04-25 21:35 | -34.61044 | -58.75077 | 7995 ft | 206 kts | 353° |
| 2026-04-25 21:35 | -34.59607 | -58.75135 | 7941 ft | 203 kts | 353° |
| 2026-04-25 21:35 | -34.58200 | -58.75194 | 7816 ft | 204 kts | 353° |
| 2026-04-25 21:35 | -34.56776 | -58.75258 | 7659 ft | 206 kts | 354° |
| 2026-04-25 21:36 | -34.55333 | -58.75320 | 7525 ft | 206 kts | 354° |
| 2026-04-25 21:36 | -34.53909 | -58.75382 | 7394 ft | 206 kts | 353° |
| 2026-04-25 21:36 | -34.52472 | -58.75443 | 7262 ft | 205 kts | 354° |
| 2026-04-25 21:36 | -34.51037 | -58.75505 | 7131 ft | 204 kts | 354° |
| 2026-04-25 21:37 | -34.49617 | -58.75566 | 7003 ft | 203 kts | 354° |
| 2026-04-25 21:37 | -34.48668 | -58.75607 | 6939 ft | 202 kts | 354° |
| 2026-04-25 21:37 | -34.46809 | -58.75687 | 6806 ft | 200 kts | 354° |
| 2026-04-25 21:37 | -34.45413 | -58.75747 | 6704 ft | 199 kts | 354° |
| 2026-04-25 21:38 | -34.44026 | -58.75807 | 6605 ft | 199 kts | 355° |
| 2026-04-25 21:38 | -34.42624 | -58.75868 | 6461 ft | 200 kts | 355° |
| 2026-04-25 21:38 | -34.41230 | -58.75929 | 6280 ft | 203 kts | 355° |
| 2026-04-25 21:38 | -34.39793 | -58.75991 | 6062 ft | 207 kts | 356° |
| 2026-04-25 21:39 | -34.38355 | -58.76053 | 5852 ft | 208 kts | 356° |
| 2026-04-25 21:39 | -34.36886 | -58.76116 | 5628 ft | 210 kts | 356° |
| 2026-04-25 21:39 | -34.35441 | -58.76178 | 5411 ft | 201 kts | 355° |
| 2026-04-25 21:39 | -34.34112 | -58.76189 | 5148 ft | 182 kts | 4° |
| 2026-04-25 21:40 | -34.32982 | -58.75660 | 4825 ft | 165 kts | 33° |
| 2026-04-25 21:40 | -34.32281 | -58.74705 | 4479 ft | 140 kts | 62° |
| 2026-04-25 21:40 | -34.32024 | -58.73650 | 4308 ft | 132 kts | 79° |
| 2026-04-25 21:40 | -34.31842 | -58.72540 | 4221 ft | 134 kts | 79° |
| 2026-04-25 21:41 | -34.31658 | -58.71423 | 4146 ft | 139 kts | 78° |
| 2026-04-25 21:41 | -34.31464 | -58.70230 | 4137 ft | 149 kts | 78° |
| 2026-04-25 21:41 | -34.31261 | -58.68974 | 4129 ft | 155 kts | 78° |
| 2026-04-25 21:41 | -34.31050 | -58.67670 | 4098 ft | 161 kts | 79° |
| 2026-04-25 21:42 | -34.30830 | -58.66295 | 4029 ft | 168 kts | 78° |
| 2026-04-25 21:42 | -34.30603 | -58.64880 | 3906 ft | 176 kts | 79° |
| 2026-04-25 21:42 | -34.30362 | -58.63391 | 3792 ft | 181 kts | 78° |
| 2026-04-25 21:42 | -34.30165 | -58.61892 | 3707 ft | 180 kts | 82° |
| 2026-04-25 21:43 | -34.30099 | -58.60399 | 3666 ft | 177 kts | 95° |
| 2026-04-25 21:43 | -34.30380 | -58.58970 | 3602 ft | 175 kts | 111° |
| 2026-04-25 21:43 | -34.30980 | -58.57688 | 3514 ft | 174 kts | 128° |
| 2026-04-25 21:43 | -34.31809 | -58.56619 | 3452 ft | 173 kts | 137° |
| 2026-04-25 21:44 | -34.32724 | -58.55653 | 3380 ft | 172 kts | 140° |
| 2026-04-25 21:44 | -34.33636 | -58.54734 | 3322 ft | 170 kts | 141° |
| 2026-04-25 21:44 | -34.35454 | -58.53057 | 3004 ft | 158 kts | 148° |
| 2026-04-25 21:45 | -34.36438 | -58.52391 | 2744 ft | 161 kts | 154° |
| 2026-04-25 21:45 | -34.37110 | -58.52010 | 2583 ft | 156 kts | 156° |
| 2026-04-25 21:45 | -34.38437 | -58.51603 | 2216 ft | 144 kts | 181° |
| 2026-04-25 21:45 | -34.39353 | -58.51968 | 1763 ft | 138 kts | 217° |
| 2026-04-25 21:46 | -34.40011 | -58.52745 | 1467 ft | 128 kts | 223° |
| 2026-04-25 21:46 | -34.40647 | -58.53468 | 1179 ft | 120 kts | 221° |
| 2026-04-25 21:46 | -34.41219 | -58.54129 | 988 ft | 106 kts | 223° |
| 2026-04-25 21:46 | -34.41740 | -58.54723 | 824 ft | 99 kts | 222° |
| 2026-04-25 21:47 | -34.42223 | -58.55290 | 702 ft | 95 kts | 223° |
| 2026-04-25 21:47 | -34.42701 | -58.55859 | 616 ft | 97 kts | 224° |
| 2026-04-25 21:47 | -34.43187 | -58.56435 | 550 ft | 98 kts | 223° |
| 2026-04-25 21:47 | -34.43668 | -58.56995 | 426 ft | 93 kts | 223° |
| 2026-04-25 21:48 | -34.44132 | -58.57538 | 302 ft | 93 kts | 222° |
| 2026-04-25 21:48 | -34.44599 | -58.58083 | 156 ft | 94 kts | 223° |
| 2026-04-25 21:48 | -34.45064 | -58.58631 | 19 ft | 89 kts | 223° |
| 2026-04-25 21:48 | -34.45452 | -58.59087 | 12 ft | 63 kts | 224° |
| 2026-04-25 21:49 | -34.45667 | -58.59306 | 12 ft | 20 kts | 176° |
| 2026-04-25 21:49 | -34.45780 | -58.59237 | 12 ft | 16 kts | 150° |
| 2026-04-25 21:49 | -34.45834 | -58.59151 | 12 ft | 12 kts | 65° |
| 2026-04-25 21:49 | -34.45791 | -58.59050 | 12 ft | 17 kts | 63° |
| 2026-04-25 21:50 | -34.45714 | -58.58869 | 12 ft | 28 kts | 62° |
| 2026-04-25 21:50 | -34.45620 | -58.58650 | 12 ft | 29 kts | 63° |
| 2026-04-25 21:50 | -34.45567 | -58.58491 | 12 ft | 10 kts | 134° |
| 2026-04-25 21:50 | -34.45587 | -58.58476 | 12 ft | 0 kts | 152° |